Time;durP1;ratioP1;P1;durP2;ratioP2;P2;SDS_P1;SDS_P2;PMS_P1;PMS_P2;Temp;Humidity;BMP_temperature;BMP_pressure;BME280_temperature;BME280_humidity;BME280_pressure;Samples;Min_cycle;Max_cycle;Signal;HPM_P1;HPM_P2
2023/08/13 00:00:47;;;;;;;0.00;0.00;;;;;;;;;;5057494;28;20287;-73
2023/08/13 00:03:13;;;;;;;0.10;0.10;;;;;;;;;;5074952;28;20542;-74
2023/08/13 00:05:39;;;;;;;0.13;0.13;;;;;;;;;;5057848;28;20545;-74
2023/08/13 00:08:06;;;;;;;0.00;0.00;;;;;;;;;;5075102;28;20238;-74
2023/08/13 00:10:33;;;;;;;0.08;0.08;;;;;;;;;;5056565;28;20246;-74
2023/08/13 00:13:01;;;;;;;0.00;0.00;;;;;;;;;;5075764;28;20274;-74
2023/08/13 00:15:27;;;;;;;0.03;0.03;;;;;;;;;;5055958;28;20251;-73
2023/08/13 00:17:53;;;;;;;0.00;0.00;;;;;;;;;;5076517;28;20493;-74
2023/08/13 00:20:20;;;;;;;0.00;0.00;;;;;;;;;;5055139;28;20259;-73
2023/08/13 00:22:46;;;;;;;0.00;0.00;;;;;;;;;;5077419;28;20546;-74
2023/08/13 00:25:12;;;;;;;0.00;0.00;;;;;;;;;;5054132;28;20207;-74
2023/08/13 00:27:39;;;;;;;0.00;0.00;;;;;;;;;;5078578;28;20442;-73
2023/08/13 00:30:07;;;;;;;0.00;0.00;;;;;;;;;;5063832;28;20200;-74
2023/08/13 00:32:34;;;;;;;0.00;0.00;;;;;;;;;;5032223;28;20235;-73
2023/08/13 00:35:00;;;;;;;0.00;0.00;;;;;;;;;;5043341;28;20245;-74
2023/08/13 00:37:26;;;;;;;0.00;0.00;;;;;;;;;;5070664;28;20255;-73
2023/08/13 00:39:53;;;;;;;0.05;0.05;;;;;;;;;;5067768;28;20274;-73
2023/08/13 00:42:19;;;;;;;0.10;0.10;;;;;;;;;;5071346;28;20246;-74
2023/08/13 00:44:46;;;;;;;0.00;0.00;;;;;;;;;;5047835;28;20243;-74
2023/08/13 00:47:13;;;;;;;0.00;0.00;;;;;;;;;;5069572;28;20321;-73
2023/08/13 00:49:40;;;;;;;0.00;0.00;;;;;;;;;;5047637;28;20205;-74
2023/08/13 00:52:07;;;;;;;0.10;0.10;;;;;;;;;;5068912;28;20244;-74
2023/08/13 00:54:34;;;;;;;0.00;0.00;;;;;;;;;;5047008;28;20307;-74
2023/08/13 00:57:03;;;;;;;0.05;0.05;;;;;;;;;;5067273;28;20306;-74
2023/08/13 00:59:30;;;;;;;0.00;0.00;;;;;;;;;;5048553;28;20243;-74
2023/08/13 01:01:57;;;;;;;0.03;0.03;;;;;;;;;;5066039;28;20245;-74
2023/08/13 01:04:24;;;;;;;0.00;0.00;;;;;;;;;;5050228;28;20211;-73
2023/08/13 01:06:59;;;;;;;0.10;0.10;;;;;;;;;;5064721;28;20301;-73
2023/08/13 01:09:31;;;;;;;0.00;0.00;;;;;;;;;;5049245;28;20208;-73
2023/08/13 01:12:00;;;;;;;0.00;0.00;;;;;;;;;;5066230;28;20250;-73
2023/08/13 01:14:28;;;;;;;0.08;0.08;;;;;;;;;;5049040;28;20236;-73
2023/08/13 01:16:56;;;;;;;0.00;0.00;;;;;;;;;;5065240;28;20306;-73
2023/08/13 01:19:22;;;;;;;0.10;0.10;;;;;;;;;;5050225;28;20518;-73
2023/08/13 01:21:50;;;;;;;0.10;0.10;;;;;;;;;;5063625;28;20508;-73
2023/08/13 01:24:18;;;;;;;0.00;0.00;;;;;;;;;;5051606;28;20235;-73
2023/08/13 01:26:48;;;;;;;0.10;0.10;;;;;;;;;;5062156;28;20265;-73
2023/08/13 01:29:18;;;;;;;0.10;0.10;;;;;;;;;;5051863;28;20232;-73
2023/08/13 01:31:46;;;;;;;0.10;0.10;;;;;;;;;;5062464;28;20243;-73
2023/08/13 01:34:13;;;;;;;0.00;0.00;;;;;;;;;;5052137;28;20271;-73
2023/08/13 01:36:40;;;;;;;0.00;0.00;;;;;;;;;;5061118;28;20242;-73
2023/08/13 01:39:06;;;;;;;0.00;0.00;;;;;;;;;;5054164;28;20275;-73
2023/08/13 01:41:43;;;;;;;0.00;0.00;;;;;;;;;;5058740;28;20238;-73
2023/08/13 01:44:09;;;;;;;0.10;0.10;;;;;;;;;;5053305;28;20279;-73
2023/08/13 01:46:36;;;;;;;0.00;0.00;;;;;;;;;;5059808;28;20242;-73
2023/08/13 01:49:02;;;;;;;0.05;0.05;;;;;;;;;;5054421;28;20273;-73
2023/08/13 01:51:28;;;;;;;0.00;0.00;;;;;;;;;;5057822;28;20302;-73
2023/08/13 01:53:55;;;;;;;0.10;0.10;;;;;;;;;;5056482;28;20217;-73
2023/08/13 01:56:21;;;;;;;0.05;0.05;;;;;;;;;;5055575;28;20313;-72
2023/08/13 01:58:49;;;;;;;0.10;0.10;;;;;;;;;;5058720;28;20276;-72
2023/08/13 02:01:15;;;;;;;0.10;0.10;;;;;;;;;;5053707;28;20246;-73
2023/08/13 02:03:41;;;;;;;0.10;0.10;;;;;;;;;;5059790;28;20239;-73
2023/08/13 02:06:08;;;;;;;0.10;0.10;;;;;;;;;;5051768;28;20309;-73
2023/08/13 02:08:34;;;;;;;0.08;0.08;;;;;;;;;;5061890;28;20234;-73
2023/08/13 02:11:00;;;;;;;0.00;0.00;;;;;;;;;;5049488;28;20310;-73
2023/08/13 02:13:27;;;;;;;0.00;0.00;;;;;;;;;;5063993;28;20294;-73
2023/08/13 02:15:55;;;;;;;0.00;0.00;;;;;;;;;;5048055;28;20246;-75
2023/08/13 02:18:21;;;;;;;0.00;0.00;;;;;;;;;;5065544;28;20385;-73
2023/08/13 02:20:47;;;;;;;0.00;0.00;;;;;;;;;;5046391;28;20587;-73
2023/08/13 02:23:14;;;;;;;0.00;0.00;;;;;;;;;;5066831;28;20277;-73
2023/08/13 02:25:40;;;;;;;0.00;0.00;;;;;;;;;;5044438;28;20246;-73
2023/08/13 02:28:07;;;;;;;0.00;0.00;;;;;;;;;;5068543;28;20275;-73
2023/08/13 02:30:33;;;;;;;0.05;0.05;;;;;;;;;;5042585;28;20245;-73
2023/08/13 02:33:01;;;;;;;0.98;0.98;;;;;;;;;;5070396;28;20203;-73
2023/08/13 02:35:27;;;;;;;0.10;0.10;;;;;;;;;;5040634;28;20258;-73
2023/08/13 02:37:54;;;;;;;0.00;0.00;;;;;;;;;;5071976;28;20274;-74
2023/08/13 02:40:20;;;;;;;0.00;0.00;;;;;;;;;;5038918;28;20236;-73
2023/08/13 02:42:46;;;;;;;0.00;0.00;;;;;;;;;;5074033;28;20382;-74
2023/08/13 02:45:13;;;;;;;0.00;0.00;;;;;;;;;;5036907;28;20214;-74
2023/08/13 02:47:39;;;;;;;0.00;0.00;;;;;;;;;;5075641;28;20195;-74
2023/08/13 02:50:07;;;;;;;0.00;0.00;;;;;;;;;;5045580;28;20241;-73
2023/08/13 02:52:34;;;;;;;0.00;0.00;;;;;;;;;;5053739;28;20468;-73
2023/08/13 02:55:00;;;;;;;0.00;0.00;;;;;;;;;;5064830;28;20217;-74
2023/08/13 02:57:26;;;;;;;0.03;0.03;;;;;;;;;;5070133;28;20243;-73
2023/08/13 02:59:54;;;;;;;0.00;0.00;;;;;;;;;;5064369;28;20273;-74
2023/08/13 03:02:20;;;;;;;0.10;0.10;;;;;;;;;;5070083;28;20291;-74
2023/08/13 03:04:46;;;;;;;0.10;0.10;;;;;;;;;;5065270;28;20229;-74
2023/08/13 03:07:14;;;;;;;0.10;0.10;;;;;;;;;;5070068;28;20333;-73
2023/08/13 03:09:41;;;;;;;0.10;0.10;;;;;;;;;;5065111;28;20244;-74
2023/08/13 03:12:07;;;;;;;0.00;0.00;;;;;;;;;;5069934;28;20253;-74
2023/08/13 03:14:34;;;;;;;0.00;0.00;;;;;;;;;;5064866;28;20274;-74
2023/08/13 03:17:00;;;;;;;0.10;0.10;;;;;;;;;;5068815;28;20260;-74
2023/08/13 03:19:26;;;;;;;0.00;0.00;;;;;;;;;;5065328;28;20238;-73
2023/08/13 03:21:53;;;;;;;0.00;0.00;;;;;;;;;;5067789;28;20582;-74
2023/08/13 03:24:21;;;;;;;0.10;0.10;;;;;;;;;;5066491;28;20239;-74
2023/08/13 03:26:47;;;;;;;0.10;0.10;;;;;;;;;;5067002;28;20265;-74
2023/08/13 03:29:13;;;;;;;0.00;0.00;;;;;;;;;;5066908;28;20218;-74
2023/08/13 03:31:40;;;;;;;0.10;0.10;;;;;;;;;;5066067;28;20234;-74
2023/08/13 03:34:06;;;;;;;0.03;0.03;;;;;;;;;;5068053;28;20509;-73
2023/08/13 03:36:32;;;;;;;0.00;0.00;;;;;;;;;;5064951;28;20316;-74
2023/08/13 03:38:59;;;;;;;0.10;0.10;;;;;;;;;;5068933;28;20448;-74
2023/08/13 03:41:26;;;;;;;0.00;0.00;;;;;;;;;;5064022;28;20235;-74
2023/08/13 03:43:53;;;;;;;0.00;0.00;;;;;;;;;;5069523;28;20210;-74
2023/08/13 03:46:19;;;;;;;0.00;0.00;;;;;;;;;;5062962;28;20325;-73
2023/08/13 03:48:45;;;;;;;0.10;0.10;;;;;;;;;;5070226;28;20497;-73
2023/08/13 03:51:12;;;;;;;0.00;0.00;;;;;;;;;;5061880;28;20264;-73
2023/08/13 03:53:38;;;;;;;0.10;0.10;;;;;;;;;;5070869;28;20246;-74
2023/08/13 03:56:05;;;;;;;0.00;0.00;;;;;;;;;;5061005;28;20373;-74
2023/08/13 03:58:34;;;;;;;0.10;0.10;;;;;;;;;;5071941;28;20212;-73
2023/08/13 04:01:04;;;;;;;0.00;0.00;;;;;;;;;;5060268;28;20242;-73
2023/08/13 04:03:30;;;;;;;0.10;0.10;;;;;;;;;;5071824;28;20242;-74
2023/08/13 04:05:56;;;;;;;0.10;0.10;;;;;;;;;;5059328;28;20577;-74
2023/08/13 04:08:23;;;;;;;0.10;0.10;;;;;;;;;;5073542;28;20460;-74
2023/08/13 04:10:50;;;;;;;0.00;0.00;;;;;;;;;;5058241;28;20259;-73
2023/08/13 04:13:16;;;;;;;0.00;0.00;;;;;;;;;;5073633;28;20249;-74
2023/08/13 04:15:44;;;;;;;0.05;0.05;;;;;;;;;;5057997;28;20353;-73
2023/08/13 04:18:10;;;;;;;0.00;0.00;;;;;;;;;;5074599;28;20205;-74
2023/08/13 04:20:39;;;;;;;0.00;0.00;;;;;;;;;;5057311;28;20309;-72
2023/08/13 04:23:06;;;;;;;0.00;0.00;;;;;;;;;;5074626;28;20230;-73
2023/08/13 04:25:32;;;;;;;0.00;0.00;;;;;;;;;;5056658;28;20244;-73
2023/08/13 04:27:59;;;;;;;0.00;0.00;;;;;;;;;;5075959;28;20317;-73
2023/08/13 04:30:25;;;;;;;0.10;0.10;;;;;;;;;;5055351;28;20271;-72
2023/08/13 04:32:54;;;;;;;0.00;0.00;;;;;;;;;;5076936;28;20381;-73
2023/08/13 04:35:20;;;;;;;0.00;0.00;;;;;;;;;;5055132;28;20214;-72
2023/08/13 04:37:47;;;;;;;0.10;0.10;;;;;;;;;;5077294;28;20192;-72
2023/08/13 04:40:14;;;;;;;0.03;0.03;;;;;;;;;;5054177;28;20259;-73
2023/08/13 04:42:41;;;;;;;0.00;0.00;;;;;;;;;;5077995;28;20258;-72
2023/08/13 04:45:07;;;;;;;0.10;0.10;;;;;;;;;;5062132;28;20276;-75
2023/08/13 04:47:34;;;;;;;0.00;0.00;;;;;;;;;;5078217;28;20289;-73
2023/08/13 04:50:01;;;;;;;0.03;0.03;;;;;;;;;;5062949;28;20245;-73
2023/08/13 04:52:28;;;;;;;0.10;0.10;;;;;;;;;;5068472;28;20313;-73
2023/08/13 04:54:54;;;;;;;0.00;0.00;;;;;;;;;;5063175;28;20254;-73
2023/08/13 04:57:21;;;;;;;0.00;0.00;;;;;;;;;;5068675;28;20250;-73
2023/08/13 04:59:47;;;;;;;0.00;0.00;;;;;;;;;;5063641;28;20274;-73
2023/08/13 05:02:13;;;;;;;0.03;0.03;;;;;;;;;;5068350;28;20443;-74
2023/08/13 05:04:40;;;;;;;0.08;0.08;;;;;;;;;;5063607;28;20268;-72
2023/08/13 05:07:07;;;;;;;0.00;0.00;;;;;;;;;;5068279;28;20552;-72
2023/08/13 05:09:34;;;;;;;0.00;0.00;;;;;;;;;;5063450;28;20212;-74
2023/08/13 05:12:01;;;;;;;0.10;0.10;;;;;;;;;;5067428;28;20367;-74
2023/08/13 05:14:27;;;;;;;0.00;0.00;;;;;;;;;;5064230;28;20207;-73
2023/08/13 05:16:54;;;;;;;0.00;0.00;;;;;;;;;;5066482;28;20242;-74
2023/08/13 05:19:21;;;;;;;0.00;0.00;;;;;;;;;;5064835;28;20530;-73
2023/08/13 05:21:47;;;;;;;0.10;0.10;;;;;;;;;;5065574;28;20260;-74
2023/08/13 05:24:15;;;;;;;0.00;0.00;;;;;;;;;;5069271;28;20222;-74
2023/08/13 05:26:41;;;;;;;0.00;0.00;;;;;;;;;;5068647;28;20427;-74
2023/08/13 05:29:08;;;;;;;0.00;0.00;;;;;;;;;;5070206;28;20549;-74
2023/08/13 05:31:34;;;;;;;1.40;1.30;;;;;;;;;;5067641;28;20249;-74
2023/08/13 05:34:00;;;;;;;0.03;0.03;;;;;;;;;;5070942;28;20211;-74
2023/08/13 05:36:27;;;;;;;0.10;0.10;;;;;;;;;;5066781;28;20308;-74
2023/08/13 05:38:53;;;;;;;0.00;0.00;;;;;;;;;;5071835;28;20382;-74
2023/08/13 05:41:21;;;;;;;0.00;0.00;;;;;;;;;;5065495;28;20318;-75
2023/08/13 05:43:47;;;;;;;0.00;0.00;;;;;;;;;;5072769;28;20211;-75
2023/08/13 05:46:14;;;;;;;0.00;0.00;;;;;;;;;;5064690;28;20423;-75
2023/08/13 05:48:41;;;;;;;0.00;0.00;;;;;;;;;;5073411;28;20523;-74
2023/08/13 05:51:07;;;;;;;0.20;0.20;;;;;;;;;;5063814;28;20264;-74
2023/08/13 05:53:34;;;;;;;0.10;0.10;;;;;;;;;;5073716;28;20214;-74
2023/08/13 05:56:00;;;;;;;0.00;0.00;;;;;;;;;;5062869;28;20238;-72
2023/08/13 05:58:28;;;;;;;0.10;0.10;;;;;;;;;;5075009;28;20218;-70
2023/08/13 06:00:54;;;;;;;0.00;0.00;;;;;;;;;;5061308;28;20242;-73
2023/08/13 06:03:21;;;;;;;0.00;0.00;;;;;;;;;;5076048;28;20470;-73
2023/08/13 06:05:48;;;;;;;0.00;0.00;;;;;;;;;;5061055;28;20270;-74
2023/08/13 06:08:14;;;;;;;0.08;0.08;;;;;;;;;;5076357;28;20257;-73
2023/08/13 06:10:40;;;;;;;0.10;0.10;;;;;;;;;;5060116;28;20242;-68
2023/08/13 06:13:07;;;;;;;0.03;0.03;;;;;;;;;;5077226;28;20195;-69
2023/08/13 06:15:34;;;;;;;0.03;0.03;;;;;;;;;;5059004;28;20464;-70
2023/08/13 06:18:01;;;;;;;0.00;0.00;;;;;;;;;;5077629;28;20234;-71
2023/08/13 06:20:28;;;;;;;0.05;0.05;;;;;;;;;;5058068;28;20310;-70
2023/08/13 06:22:54;;;;;;;0.03;0.03;;;;;;;;;;5078324;28;20542;-71
2023/08/13 06:25:20;;;;;;;0.10;0.10;;;;;;;;;;5057473;28;20453;-72
2023/08/13 06:27:47;;;;;;;0.00;0.00;;;;;;;;;;5079617;28;20431;-71
2023/08/13 06:30:13;;;;;;;0.10;0.10;;;;;;;;;;5056103;28;20204;-72
2023/08/13 06:32:41;;;;;;;0.10;0.10;;;;;;;;;;5080549;28;20427;-71
2023/08/13 06:35:07;;;;;;;0.00;0.00;;;;;;;;;;5062370;28;20242;-72
2023/08/13 06:37:34;;;;;;;0.10;0.10;;;;;;;;;;5080995;28;20216;-72
2023/08/13 06:40:00;;;;;;;0.15;0.15;;;;;;;;;;5065449;28;20397;-71
2023/08/13 06:42:26;;;;;;;0.00;0.00;;;;;;;;;;5070602;28;20306;-71
2023/08/13 06:44:53;;;;;;;0.00;0.00;;;;;;;;;;5065720;28;20275;-70
2023/08/13 06:47:19;;;;;;;0.10;0.10;;;;;;;;;;5070635;28;20302;-73
2023/08/13 06:49:47;;;;;;;0.00;0.00;;;;;;;;;;5065579;28;20215;-73
2023/08/13 06:52:13;;;;;;;0.10;0.10;;;;;;;;;;5070375;28;20243;-73
2023/08/13 06:54:40;;;;;;;0.00;0.00;;;;;;;;;;5064958;28;20254;-75
2023/08/13 06:57:06;;;;;;;0.00;0.00;;;;;;;;;;5070171;28;20250;-74
2023/08/13 06:59:32;;;;;;;0.00;0.00;;;;;;;;;;5065315;28;20215;-74
2023/08/13 07:01:59;;;;;;;0.00;0.00;;;;;;;;;;5068939;28;20250;-74
2023/08/13 07:04:25;;;;;;;0.03;0.03;;;;;;;;;;5066157;28;20208;-72
2023/08/13 07:06:53;;;;;;;0.10;0.10;;;;;;;;;;5068012;28;20246;-75
2023/08/13 07:09:18;;;;;;;0.00;0.00;;;;;;;;;;5066713;28;20410;-75
2023/08/13 07:11:45;;;;;;;0.00;0.00;;;;;;;;;;5067066;28;20265;-74
2023/08/13 07:14:11;;;;;;;0.00;0.00;;;;;;;;;;5067755;28;20208;-75
2023/08/13 07:16:37;;;;;;;0.00;0.00;;;;;;;;;;5066128;28;20239;-75
2023/08/13 07:19:04;;;;;;;0.00;0.00;;;;;;;;;;5068557;28;20372;-75
2023/08/13 07:21:30;;;;;;;0.00;0.00;;;;;;;;;;5065138;28;20251;-75
2023/08/13 07:24:07;;;;;;;0.20;0.20;;;;;;;;;;5069061;28;20270;-76
2023/08/13 07:26:35;;;;;;;0.00;0.00;;;;;;;;;;5065490;28;20439;-76
2023/08/13 07:29:02;;;;;;;0.00;0.00;;;;;;;;;;5068689;28;20239;-75
2023/08/13 07:31:29;;;;;;;0.00;0.00;;;;;;;;;;5064867;28;20578;-75
2023/08/13 07:33:55;;;;;;;0.05;0.05;;;;;;;;;;5069268;28;20200;-75
2023/08/13 07:36:22;;;;;;;0.00;0.00;;;;;;;;;;5059986;28;20255;-76
2023/08/13 07:38:48;;;;;;;0.00;0.00;;;;;;;;;;5070104;28;20204;-75
2023/08/13 07:41:16;;;;;;;0.00;0.00;;;;;;;;;;5062799;28;20239;-75
2023/08/13 07:43:42;;;;;;;0.10;0.10;;;;;;;;;;5070946;28;20478;-75
2023/08/13 07:46:09;;;;;;;0.00;0.00;;;;;;;;;;5061720;28;20259;-74
2023/08/13 07:48:35;;;;;;;0.00;0.00;;;;;;;;;;5071477;28;20195;-75
2023/08/13 07:51:01;;;;;;;0.00;0.00;;;;;;;;;;5060719;28;20307;-74
2023/08/13 07:53:29;;;;;;;0.00;0.00;;;;;;;;;;5072319;28;20287;-75
2023/08/13 07:55:58;;;;;;;0.00;0.00;;;;;;;;;;5059877;28;20246;-75
2023/08/13 07:58:26;;;;;;;0.00;0.00;;;;;;;;;;5072859;28;20203;-75
2023/08/13 08:00:53;;;;;;;0.00;0.00;;;;;;;;;;5059329;28;20243;-75
2023/08/13 08:03:19;;;;;;;0.10;0.10;;;;;;;;;;5073462;28;20234;-75
2023/08/13 08:05:47;;;;;;;0.00;0.00;;;;;;;;;;5058412;28;20298;-75
2023/08/13 08:08:14;;;;;;;0.00;0.00;;;;;;;;;;5074070;28;20254;-75
2023/08/13 08:10:40;;;;;;;0.10;0.10;;;;;;;;;;5057942;28;20507;-75
2023/08/13 08:13:06;;;;;;;0.00;0.00;;;;;;;;;;5075156;28;20204;-74
2023/08/13 08:15:34;;;;;;;0.00;0.00;;;;;;;;;;5056757;28;20428;-75
2023/08/13 08:18:00;;;;;;;0.10;0.10;;;;;;;;;;5075874;28;20223;-75
2023/08/13 08:20:27;;;;;;;0.10;0.10;;;;;;;;;;5056181;28;20244;-76
2023/08/13 08:22:54;;;;;;;0.00;0.00;;;;;;;;;;5076059;28;20224;-74
2023/08/13 08:25:20;;;;;;;0.00;0.00;;;;;;;;;;5055264;28;20274;-76
2023/08/13 08:27:48;;;;;;;0.00;0.00;;;;;;;;;;5077426;28;20200;-75
2023/08/13 08:30:20;;;;;;;0.00;0.00;;;;;;;;;;5056464;28;20492;-74
2023/08/13 08:32:48;;;;;;;0.03;0.03;;;;;;;;;;5078330;28;20211;-75
2023/08/13 08:35:15;;;;;;;0.00;0.00;;;;;;;;;;5054389;28;20215;-74
2023/08/13 08:37:41;;;;;;;0.00;0.00;;;;;;;;;;5078381;28;20484;-74
2023/08/13 08:40:08;;;;;;;0.05;0.05;;;;;;;;;;5061896;28;20204;-74
2023/08/13 08:42:34;;;;;;;0.00;0.00;;;;;;;;;;5078987;28;20255;-75
2023/08/13 08:45:01;;;;;;;0.10;0.10;;;;;;;;;;5063704;28;20526;-75
2023/08/13 08:47:28;;;;;;;0.10;0.10;;;;;;;;;;5068720;28;20245;-75
2023/08/13 08:50:05;;;;;;;0.00;0.00;;;;;;;;;;5063599;28;20204;-75
2023/08/13 08:52:34;;;;;;;0.00;0.00;;;;;;;;;;5068617;28;20239;-75
2023/08/13 08:55:04;;;;;;;0.10;0.10;;;;;;;;;;5062895;28;20231;-75
2023/08/13 08:57:32;;;;;;;0.00;0.00;;;;;;;;;;5069573;28;20285;-75
2023/08/13 09:00:08;;;;;;;0.00;0.00;;;;;;;;;;5066854;28;20204;-75
2023/08/13 09:02:37;;;;;;;0.00;0.00;;;;;;;;;;5072509;28;20246;-75
2023/08/13 09:05:06;;;;;;;0.00;0.00;;;;;;;;;;5067224;28;20205;-75
2023/08/13 09:07:32;;;;;;;0.10;0.10;;;;;;;;;;5072363;28;20559;-75
2023/08/13 09:09:58;;;;;;;0.00;0.00;;;;;;;;;;5066810;28;20219;-75
2023/08/13 09:12:25;;;;;;;0.00;0.00;;;;;;;;;;5072433;28;20246;-74
2023/08/13 09:14:53;;;;;;;0.10;0.10;;;;;;;;;;5066699;28;20271;-75
2023/08/13 09:17:23;;;;;;;0.00;0.00;;;;;;;;;;5071949;28;20293;-75
2023/08/13 09:19:49;;;;;;;0.00;0.00;;;;;;;;;;5067028;28;20398;-75
2023/08/13 09:22:17;;;;;;;0.00;0.00;;;;;;;;;;5071932;28;20476;-74
2023/08/13 09:24:43;;;;;;;0.10;0.10;;;;;;;;;;5066730;28;20256;-74
2023/08/13 09:27:10;;;;;;;0.00;0.00;;;;;;;;;;5071937;28;20255;-74
2023/08/13 09:29:37;;;;;;;0.00;0.00;;;;;;;;;;5066888;28;20446;-74
2023/08/13 09:32:04;;;;;;;0.00;0.00;;;;;;;;;;5071393;28;20239;-74
2023/08/13 09:34:33;;;;;;;0.00;0.00;;;;;;;;;;5067150;28;20200;-75
2023/08/13 09:36:59;;;;;;;0.00;0.00;;;;;;;;;;5070715;28;20470;-75
2023/08/13 09:39:28;;;;;;;0.10;0.10;;;;;;;;;;5067731;28;20231;-74
2023/08/13 09:41:54;;;;;;;0.00;0.00;;;;;;;;;;5069888;28;20444;-74
2023/08/13 09:44:23;;;;;;;0.05;0.05;;;;;;;;;;5068275;28;20597;-74
2023/08/13 09:46:53;;;;;;;0.00;0.00;;;;;;;;;;5069315;28;20496;-75
2023/08/13 09:49:19;;;;;;;0.10;0.10;;;;;;;;;;5068361;28;20250;-74
2023/08/13 09:51:47;;;;;;;0.00;0.00;;;;;;;;;;5068704;28;20437;-75
2023/08/13 09:54:15;;;;;;;0.00;0.00;;;;;;;;;;5068739;28;20262;-75
2023/08/13 09:56:45;;;;;;;0.00;0.00;;;;;;;;;;5067881;28;20239;-75
2023/08/13 09:59:12;;;;;;;0.00;0.00;;;;;;;;;;5068924;28;20227;-75
2023/08/13 10:01:38;;;;;;;0.00;0.00;;;;;;;;;;5067457;28;20434;-75
2023/08/13 10:04:06;;;;;;;0.00;0.00;;;;;;;;;;5069523;28;20291;-75
2023/08/13 10:06:33;;;;;;;0.00;0.00;;;;;;;;;;5066524;28;20245;-75
2023/08/13 10:09:00;;;;;;;0.05;0.05;;;;;;;;;;5069282;28;20243;-74
2023/08/13 10:11:26;;;;;;;0.00;0.00;;;;;;;;;;5065549;28;20262;-75
2023/08/13 10:13:54;;;;;;;0.00;0.00;;;;;;;;;;5071109;28;20215;-75
2023/08/13 10:16:21;;;;;;;0.00;0.00;;;;;;;;;;5064857;28;20239;-75
2023/08/13 10:18:47;;;;;;;0.00;0.00;;;;;;;;;;5072011;28;20430;-75
2023/08/13 10:21:14;;;;;;;0.10;0.10;;;;;;;;;;5063724;28;20259;-75
2023/08/13 10:23:41;;;;;;;0.10;0.10;;;;;;;;;;5072351;28;20232;-74
2023/08/13 10:26:09;;;;;;;0.00;0.00;;;;;;;;;;5063160;28;20472;-75
2023/08/13 10:28:36;;;;;;;0.03;0.03;;;;;;;;;;5073106;28;20211;-75
2023/08/13 10:31:24;;;;;;;0.00;0.00;;;;;;;;;;5062372;28;20319;-75
2023/08/13 10:33:59;;;;;;;0.00;0.00;;;;;;;;;;5071340;28;20188;-75
2023/08/13 10:36:40;;;;;;;0.00;0.00;;;;;;;;;;5065292;28;20245;-75
2023/08/13 10:39:22;;;;;;;0.00;0.00;;;;;;;;;;5068737;28;20231;-75
2023/08/13 10:41:48;;;;;;;0.00;0.00;;;;;;;;;;5068071;28;20611;-74
2023/08/13 10:44:26;;;;;;;0.10;0.10;;;;;;;;;;5067747;28;20224;-75
2023/08/13 10:46:54;;;;;;;0.00;0.00;;;;;;;;;;5068676;28;20310;-76
2023/08/13 10:49:23;;;;;;;0.00;0.00;;;;;;;;;;5067108;28;20400;-75
2023/08/13 10:51:49;;;;;;;0.00;0.00;;;;;;;;;;5068155;28;20642;-74
2023/08/13 10:54:15;;;;;;;0.00;0.00;;;;;;;;;;5067302;28;20231;-74
2023/08/13 10:56:42;;;;;;;0.00;0.00;;;;;;;;;;5066992;28;20318;-74
2023/08/13 10:59:09;;;;;;;0.00;0.00;;;;;;;;;;5068141;28;20208;-74
2023/08/13 11:01:55;;;;;;;0.00;0.00;;;;;;;;;;5065950;28;20600;-74
2023/08/13 11:04:23;;;;;;;0.00;0.00;;;;;;;;;;5066562;28;20228;-74
2023/08/13 11:06:50;;;;;;;0.00;0.00;;;;;;;;;;5067677;28;20239;-74
2023/08/13 11:09:17;;;;;;;0.00;0.00;;;;;;;;;;5066847;28;20275;-75
2023/08/13 11:11:43;;;;;;;0.03;0.03;;;;;;;;;;5066817;28;20251;-74
2023/08/13 11:14:10;;;;;;;0.00;0.00;;;;;;;;;;5067616;28;20271;-74
2023/08/13 11:16:36;;;;;;;0.00;0.00;;;;;;;;;;5065849;28;20254;-75
2023/08/13 11:19:04;;;;;;;0.00;0.00;;;;;;;;;;5068430;28;20204;-75
2023/08/13 11:21:33;;;;;;;0.00;0.00;;;;;;;;;;5064597;28;20246;-75
2023/08/13 11:23:59;;;;;;;0.00;0.00;;;;;;;;;;5069116;28;20227;-75
2023/08/13 11:26:25;;;;;;;0.00;0.00;;;;;;;;;;5064319;28;20243;-75
2023/08/13 11:28:55;;;;;;;0.00;0.00;;;;;;;;;;5069735;28;20270;-75
2023/08/13 11:31:21;;;;;;;0.00;0.00;;;;;;;;;;5063616;28;20504;-74
2023/08/13 11:33:49;;;;;;;0.00;0.00;;;;;;;;;;5070245;28;20263;-75
2023/08/13 11:36:15;;;;;;;0.00;0.00;;;;;;;;;;5062768;28;20246;-75
2023/08/13 11:38:43;;;;;;;0.00;0.00;;;;;;;;;;5071186;28;20211;-74
2023/08/13 11:41:13;;;;;;;0.00;0.00;;;;;;;;;;5061945;28;20250;-74
2023/08/13 11:43:39;;;;;;;0.00;0.00;;;;;;;;;;5071346;28;20470;-75
2023/08/13 11:46:05;;;;;;;0.00;0.00;;;;;;;;;;5061236;28;20235;-74
2023/08/13 11:48:33;;;;;;;0.00;0.00;;;;;;;;;;5072222;28;20450;-75
2023/08/13 11:51:11;;;;;;;0.00;0.00;;;;;;;;;;5060388;28;20239;-75
2023/08/13 11:53:41;;;;;;;0.00;0.00;;;;;;;;;;5071128;28;20253;-75
2023/08/13 11:56:08;;;;;;;0.00;0.00;;;;;;;;;;5061381;28;20303;-75
2023/08/13 11:58:35;;;;;;;0.00;0.00;;;;;;;;;;5071765;28;20242;-76
2023/08/13 12:01:03;;;;;;;0.00;0.00;;;;;;;;;;5060378;28;20242;-75
2023/08/13 12:03:34;;;;;;;0.00;0.00;;;;;;;;;;5072631;28;20204;-75
2023/08/13 12:06:01;;;;;;;0.00;0.00;;;;;;;;;;5060379;28;20612;-75
2023/08/13 12:08:28;;;;;;;0.00;0.00;;;;;;;;;;5072572;28;20449;-74
2023/08/13 12:10:54;;;;;;;0.00;0.00;;;;;;;;;;5059474;28;20239;-74
2023/08/13 12:13:22;;;;;;;0.00;0.00;;;;;;;;;;5073250;28;20457;-74
2023/08/13 12:15:48;;;;;;;0.00;0.00;;;;;;;;;;5058797;28;20262;-74
2023/08/13 12:18:15;;;;;;;0.00;0.00;;;;;;;;;;5074069;28;20235;-75
2023/08/13 12:20:41;;;;;;;0.00;0.00;;;;;;;;;;5057756;28;20251;-75
2023/08/13 12:23:08;;;;;;;0.00;0.00;;;;;;;;;;5074746;28;20224;-75
2023/08/13 12:25:34;;;;;;;0.00;0.00;;;;;;;;;;5056646;28;20246;-74
2023/08/13 12:28:01;;;;;;;0.00;0.00;;;;;;;;;;5075792;28;20246;-74
2023/08/13 12:30:28;;;;;;;0.00;0.00;;;;;;;;;;5055981;28;20258;-74
2023/08/13 12:32:55;;;;;;;0.00;0.00;;;;;;;;;;5075535;28;20271;-74
2023/08/13 12:35:22;;;;;;;0.00;0.00;;;;;;;;;;5055074;28;20234;-75
2023/08/13 12:37:48;;;;;;;0.00;0.00;;;;;;;;;;5077357;28;20436;-74
2023/08/13 12:40:15;;;;;;;0.00;0.00;;;;;;;;;;5054085;28;20268;-74
2023/08/13 12:42:42;;;;;;;0.00;0.00;;;;;;;;;;5078169;28;20192;-75
2023/08/13 12:45:09;;;;;;;0.00;0.00;;;;;;;;;;5056068;28;20247;-74
2023/08/13 12:47:37;;;;;;;0.00;0.00;;;;;;;;;;5078842;28;20239;-75
2023/08/13 12:50:03;;;;;;;0.00;0.00;;;;;;;;;;5063430;28;20453;-74
2023/08/13 12:52:30;;;;;;;0.00;0.00;;;;;;;;;;5068737;28;20260;-74
2023/08/13 12:54:56;;;;;;;0.00;0.00;;;;;;;;;;5062881;28;20247;-75
2023/08/13 12:57:22;;;;;;;0.00;0.00;;;;;;;;;;5068670;28;20243;-75
2023/08/13 12:59:49;;;;;;;0.00;0.00;;;;;;;;;;5063169;28;20278;-75
2023/08/13 13:02:15;;;;;;;0.00;0.00;;;;;;;;;;5068498;28;20310;-75
2023/08/13 13:04:43;;;;;;;0.00;0.00;;;;;;;;;;5063306;28;20295;-75
2023/08/13 13:07:09;;;;;;;0.00;0.00;;;;;;;;;;5068230;28;20449;-75
2023/08/13 13:09:35;;;;;;;0.00;0.00;;;;;;;;;;5063341;28;20231;-75
2023/08/13 13:12:02;;;;;;;0.00;0.00;;;;;;;;;;5067670;28;20243;-75
2023/08/13 13:14:28;;;;;;;0.00;0.00;;;;;;;;;;5063690;28;20200;-76
2023/08/13 13:16:55;;;;;;;0.00;0.00;;;;;;;;;;5066531;28;20262;-74
2023/08/13 13:19:21;;;;;;;0.00;0.00;;;;;;;;;;5064856;28;20399;-74
2023/08/13 13:21:49;;;;;;;0.00;0.00;;;;;;;;;;5065464;28;20302;-73
2023/08/13 13:24:15;;;;;;;0.00;0.00;;;;;;;;;;5065244;28;20239;-74
2023/08/13 13:26:41;;;;;;;0.00;0.00;;;;;;;;;;5064881;28;20487;-75
2023/08/13 13:29:08;;;;;;;0.00;0.00;;;;;;;;;;5066346;28;20204;-75
2023/08/13 13:31:34;;;;;;;0.10;0.10;;;;;;;;;;5063883;28;20315;-74
2023/08/13 13:34:00;;;;;;;0.00;0.00;;;;;;;;;;5067375;28;20211;-74
2023/08/13 13:36:27;;;;;;;0.00;0.00;;;;;;;;;;5062892;28;20258;-74
2023/08/13 13:38:54;;;;;;;0.00;0.00;;;;;;;;;;5068286;28;20236;-75
2023/08/13 13:41:21;;;;;;;0.00;0.00;;;;;;;;;;5061894;28;20246;-75
2023/08/13 13:43:48;;;;;;;0.00;0.00;;;;;;;;;;5069907;28;20236;-74
2023/08/13 13:46:14;;;;;;;0.00;0.00;;;;;;;;;;5064857;28;20490;-75
2023/08/13 13:48:41;;;;;;;0.00;0.00;;;;;;;;;;5073391;28;20452;-75
2023/08/13 13:51:07;;;;;;;0.00;0.00;;;;;;;;;;5063640;28;20245;-74
2023/08/13 13:53:33;;;;;;;0.00;0.00;;;;;;;;;;5073868;28;20212;-75
2023/08/13 13:56:01;;;;;;;0.00;0.00;;;;;;;;;;5062602;28;20302;-75
2023/08/13 13:58:27;;;;;;;0.00;0.00;;;;;;;;;;5075119;28;20226;-75
2023/08/13 14:00:54;;;;;;;0.00;0.00;;;;;;;;;;5062008;28;20255;-74
2023/08/13 14:03:20;;;;;;;0.00;0.00;;;;;;;;;;5075458;28;20204;-75
2023/08/13 14:05:51;;;;;;;0.00;0.00;;;;;;;;;;5060584;28;20243;-75
2023/08/13 14:08:17;;;;;;;0.00;0.00;;;;;;;;;;5076229;28;20563;-75
2023/08/13 14:10:43;;;;;;;0.00;0.00;;;;;;;;;;5060377;28;20459;-75
2023/08/13 14:13:11;;;;;;;0.00;0.00;;;;;;;;;;5076629;28;20267;-75
2023/08/13 14:15:38;;;;;;;0.00;0.00;;;;;;;;;;5059693;28;20306;-75
2023/08/13 14:18:04;;;;;;;0.00;0.00;;;;;;;;;;5077247;28;20232;-75
2023/08/13 14:20:31;;;;;;;0.00;0.00;;;;;;;;;;5058454;28;20239;-75
2023/08/13 14:22:57;;;;;;;0.00;0.00;;;;;;;;;;5078335;28;20223;-75
2023/08/13 14:25:24;;;;;;;0.00;0.00;;;;;;;;;;5057521;28;20228;-75
2023/08/13 14:27:50;;;;;;;0.00;0.00;;;;;;;;;;5079359;28;20235;-75
2023/08/13 14:30:18;;;;;;;0.00;0.00;;;;;;;;;;5056605;28;20262;-75
2023/08/13 14:32:44;;;;;;;0.00;0.00;;;;;;;;;;5080053;28;20196;-75
2023/08/13 14:35:11;;;;;;;0.00;0.00;;;;;;;;;;5055576;28;20238;-76
2023/08/13 14:37:37;;;;;;;0.00;0.00;;;;;;;;;;5080543;28;20219;-76
2023/08/13 14:40:04;;;;;;;0.00;0.00;;;;;;;;;;5065380;28;20196;-74
2023/08/13 14:42:30;;;;;;;0.00;0.00;;;;;;;;;;5070693;28;20240;-74